createdAt,value
2023-10-30T00:00:57.112Z,14.1
2023-10-30T00:01:56.999Z,14.1
2023-10-30T00:02:57.059Z,14.1
2023-10-30T00:03:57.134Z,14.1
2023-10-30T00:04:56.996Z,14.1
2023-10-30T00:05:56.999Z,14.1
2023-10-30T00:06:57.054Z,14.1
2023-10-30T00:07:57.008Z,14.1
2023-10-30T00:08:56.999Z,14
2023-10-30T00:09:57.003Z,14
2023-10-30T00:10:57.004Z,14
2023-10-30T00:11:57.018Z,14
2023-10-30T00:12:57.038Z,14
2023-10-30T00:13:57.031Z,14
2023-10-30T00:14:57.042Z,14
2023-10-30T00:15:57.011Z,14
2023-10-30T00:16:57.041Z,14
2023-10-30T00:17:57.074Z,14
2023-10-30T00:18:57.014Z,14
2023-10-30T00:19:57.031Z,14
2023-10-30T00:20:57.031Z,14
2023-10-30T00:21:57.024Z,14
2023-10-30T00:22:57.018Z,14
2023-10-30T00:23:57.032Z,14
2023-10-30T00:24:57.071Z,14
2023-10-30T00:25:57.044Z,14
2023-10-30T00:26:57.022Z,14
2023-10-30T00:27:57.025Z,14
2023-10-30T00:28:57.011Z,14
2023-10-30T00:29:57.032Z,14
2023-10-30T00:30:57.105Z,14
2023-10-30T00:31:57.012Z,14
2023-10-30T00:32:57.055Z,14
2023-10-30T00:33:57.044Z,14
2023-10-30T00:34:57.083Z,14
2023-10-30T00:35:57.031Z,14
2023-10-30T00:36:57.069Z,14
2023-10-30T00:37:57.035Z,14
2023-10-30T00:38:57.036Z,14
2023-10-30T00:39:57.029Z,14
2023-10-30T00:40:57.059Z,14
2023-10-30T00:41:57.038Z,14
2023-10-30T00:42:57.046Z,14
2023-10-30T00:43:57.035Z,14
2023-10-30T00:44:57.044Z,14
2023-10-30T00:45:57.046Z,14
2023-10-30T00:46:57.037Z,14
2023-10-30T00:47:57.131Z,14
2023-10-30T00:48:57.026Z,14
2023-10-30T00:49:57.061Z,14
2023-10-30T00:50:57.048Z,14
2023-10-30T00:51:57.064Z,14
2023-10-30T00:52:57.039Z,14
2023-10-30T00:53:57.078Z,14
2023-10-30T00:54:57.056Z,14
2023-10-30T00:55:57.056Z,14
2023-10-30T00:56:57.062Z,14
2023-10-30T00:57:57.072Z,14
2023-10-30T00:58:57.058Z,14
2023-10-30T00:59:57.106Z,14
2023-10-30T01:00:57.051Z,13.8
2023-10-30T01:01:57.124Z,13.8
2023-10-30T01:02:57.197Z,13.8
2023-10-30T01:03:57.287Z,13.8
2023-10-30T01:04:57.369Z,13.8
2023-10-30T01:05:57.090Z,13.8
2023-10-30T01:06:57.094Z,13.8
2023-10-30T01:07:57.059Z,13.8
2023-10-30T01:08:57.070Z,13.8
2023-10-30T01:09:57.064Z,13.8
2023-10-30T01:10:57.111Z,13.8
2023-10-30T01:11:57.067Z,13.8
2023-10-30T01:12:57.108Z,13.8
2023-10-30T01:13:57.065Z,13.8
2023-10-30T01:14:57.077Z,13.8
2023-10-30T01:15:57.116Z,13.8
2023-10-30T01:16:57.110Z,13.8
2023-10-30T01:17:57.114Z,13.8
2023-10-30T01:18:57.066Z,13.8
2023-10-30T01:19:57.094Z,13.8
2023-10-30T01:20:57.120Z,13.8
2023-10-30T01:21:57.072Z,13.8
2023-10-30T01:22:57.079Z,13.8
2023-10-30T01:23:57.114Z,13.8
2023-10-30T01:24:57.068Z,13.8
2023-10-30T01:25:57.086Z,13.8
2023-10-30T01:26:57.119Z,13.8
2023-10-30T01:27:57.083Z,13.8
2023-10-30T01:28:57.084Z,13.8
2023-10-30T01:29:57.074Z,13.8
2023-10-30T01:30:57.073Z,13.8
2023-10-30T01:31:57.099Z,13.8
2023-10-30T01:32:57.233Z,13.8
2023-10-30T01:33:57.193Z,13.8
2023-10-30T01:34:57.122Z,13.8
2023-10-30T01:35:57.076Z,13.8
2023-10-30T01:36:57.092Z,13.8
2023-10-30T01:37:57.111Z,13.8
2023-10-30T01:38:57.089Z,13.8
2023-10-30T01:39:57.143Z,13.8
2023-10-30T01:40:57.102Z,13.8
2023-10-30T01:41:57.090Z,13.8
2023-10-30T01:42:57.132Z,13.8
2023-10-30T01:43:57.092Z,13.8
2023-10-30T01:44:57.098Z,13.8
2023-10-30T01:45:57.105Z,13.8
2023-10-30T01:46:57.099Z,13.8
2023-10-30T01:47:57.519Z,13.8
2023-10-30T01:48:57.135Z,13.8
2023-10-30T01:49:57.101Z,13.8
2023-10-30T01:50:57.122Z,13.8
2023-10-30T01:51:57.207Z,13.8
2023-10-30T01:52:57.122Z,13.8
2023-10-30T01:53:57.125Z,13.8
2023-10-30T01:54:57.111Z,13.8
2023-10-30T01:55:57.194Z,13.8
2023-10-30T01:56:57.108Z,13.8
2023-10-30T01:57:57.118Z,13.8
2023-10-30T01:58:57.112Z,13.6
2023-10-30T01:59:57.157Z,13.6
2023-10-30T02:00:57.144Z,13.6
2023-10-30T02:01:57.181Z,13.6
2023-10-30T02:02:57.157Z,13.6
2023-10-30T02:03:57.197Z,13.6
2023-10-30T02:04:57.142Z,13.6
2023-10-30T02:05:57.132Z,13.6
2023-10-30T02:06:57.131Z,13.6
2023-10-30T02:07:57.154Z,13.6
2023-10-30T02:08:57.179Z,13.6
2023-10-30T02:09:57.193Z,13.6
2023-10-30T02:10:57.138Z,13.6
2023-10-30T02:11:57.148Z,13.6
2023-10-30T02:12:57.129Z,13.6
2023-10-30T02:13:57.139Z,13.6
2023-10-30T02:14:57.130Z,13.6
2023-10-30T02:15:57.196Z,13.6
2023-10-30T02:16:57.157Z,13.6
2023-10-30T02:17:57.144Z,13.6
2023-10-30T02:18:57.135Z,13.6
2023-10-30T02:19:57.138Z,13.6
2023-10-30T02:20:57.174Z,13.6
2023-10-30T02:21:57.146Z,13.6
2023-10-30T02:22:57.148Z,13.6
2023-10-30T02:23:57.143Z,13.6
2023-10-30T02:24:57.163Z,13.6
2023-10-30T02:25:57.199Z,13.6
2023-10-30T02:26:57.180Z,13.6
2023-10-30T02:27:57.146Z,13.6
2023-10-30T02:28:57.146Z,13.6
2023-10-30T02:29:57.149Z,13.6
2023-10-30T02:30:57.156Z,13.6
2023-10-30T02:31:57.214Z,13.6
2023-10-30T02:32:57.217Z,13.6
2023-10-30T02:33:57.232Z,13.6
2023-10-30T02:34:57.172Z,13.6
2023-10-30T02:35:57.171Z,13.6
2023-10-30T02:36:57.208Z,13.6
2023-10-30T02:37:57.179Z,13.6
2023-10-30T02:38:57.169Z,13.6
2023-10-30T02:39:57.197Z,13.3
2023-10-30T02:40:57.165Z,13.3
2023-10-30T02:41:57.212Z,13.3
2023-10-30T02:42:57.210Z,13.3
2023-10-30T02:43:57.172Z,13.3
2023-10-30T02:44:57.179Z,13.3
2023-10-30T02:45:57.337Z,13.3
2023-10-30T02:46:57.167Z,13.3
2023-10-30T02:47:57.231Z,13.3
2023-10-30T02:48:57.296Z,13.3
2023-10-30T02:49:57.176Z,13.3
2023-10-30T02:50:57.175Z,13.3
2023-10-30T02:51:57.181Z,13.3
2023-10-30T02:52:57.174Z,13.3
2023-10-30T02:53:57.211Z,13.4
2023-10-30T02:54:57.181Z,13.4
2023-10-30T02:55:57.173Z,13.4
2023-10-30T02:56:57.168Z,13.4
2023-10-30T02:57:57.159Z,13.4
2023-10-30T02:58:57.174Z,13.4
2023-10-30T02:59:57.235Z,13.4
2023-10-30T03:00:57.192Z,13.4
2023-10-30T03:01:57.186Z,13.4
2023-10-30T03:02:57.262Z,13.4
2023-10-30T03:03:57.429Z,13.4
2023-10-30T03:04:57.258Z,13.4
2023-10-30T03:05:57.181Z,13.4
2023-10-30T03:06:57.184Z,13.4
2023-10-30T03:07:57.221Z,13.4
2023-10-30T03:08:57.183Z,13.4
2023-10-30T03:09:57.214Z,13.4
2023-10-30T03:10:57.237Z,13.4
2023-10-30T03:11:57.213Z,13.4
2023-10-30T03:12:57.233Z,13.4
2023-10-30T03:13:57.191Z,13.4
2023-10-30T03:14:57.214Z,13.4
2023-10-30T03:15:57.306Z,13.4
2023-10-30T03:16:57.225Z,13.4
2023-10-30T03:17:57.214Z,13.4
2023-10-30T03:18:57.213Z,13.4
2023-10-30T03:19:57.248Z,13.4
2023-10-30T03:20:57.219Z,13.4
2023-10-30T03:21:57.219Z,13.4
2023-10-30T03:22:57.201Z,13.4
2023-10-30T03:23:57.221Z,13.4
2023-10-30T03:24:57.197Z,13.4
2023-10-30T03:25:57.253Z,13.4
2023-10-30T03:26:57.193Z,13.4
2023-10-30T03:27:57.201Z,13.4
2023-10-30T03:28:57.215Z,13.4
2023-10-30T03:29:57.199Z,13.4
2023-10-30T03:30:57.243Z,13.4
2023-10-30T03:31:57.199Z,13.4
2023-10-30T03:32:57.244Z,13.4
2023-10-30T03:33:57.273Z,13.4
2023-10-30T03:34:57.196Z,13.4
2023-10-30T03:35:57.192Z,13.4
2023-10-30T03:36:57.189Z,13.4
2023-10-30T03:37:57.186Z,13.4
2023-10-30T03:38:57.206Z,13.4
2023-10-30T03:39:57.200Z,13.4
2023-10-30T03:40:57.203Z,13.4
2023-10-30T03:41:57.233Z,13.4
2023-10-30T03:42:57.204Z,13.4
2023-10-30T03:43:57.240Z,13.4
2023-10-30T03:44:57.196Z,13.4
2023-10-30T03:45:57.268Z,13.4
2023-10-30T03:46:57.216Z,13.3
2023-10-30T03:47:57.250Z,13.3
2023-10-30T03:48:57.209Z,13.3
2023-10-30T03:49:57.255Z,13.3
2023-10-30T03:50:57.205Z,13.3
2023-10-30T03:51:57.224Z,13.3
2023-10-30T03:52:57.215Z,13.3
2023-10-30T03:53:57.211Z,13.3
2023-10-30T03:54:57.252Z,13.3
2023-10-30T03:55:57.248Z,13.3
2023-10-30T03:56:57.206Z,13.3
2023-10-30T03:57:57.216Z,13.3
2023-10-30T03:58:57.235Z,13.3
2023-10-30T03:59:57.223Z,13.3
2023-10-30T04:00:57.297Z,13.3
2023-10-30T04:01:57.242Z,13.3
2023-10-30T04:02:57.275Z,13.3
2023-10-30T04:03:57.302Z,13.3
2023-10-30T04:04:57.287Z,13.3
2023-10-30T04:05:57.238Z,13.3
2023-10-30T04:06:57.254Z,13.3
2023-10-30T04:07:57.243Z,13.3
2023-10-30T04:08:57.249Z,13.3
2023-10-30T04:09:57.289Z,13.3
2023-10-30T04:10:57.240Z,13.3
2023-10-30T04:11:57.241Z,13.3
2023-10-30T04:12:57.299Z,13.3
2023-10-30T04:13:57.284Z,13.3
2023-10-30T04:14:57.249Z,13.3
2023-10-30T04:15:57.355Z,13.3
2023-10-30T04:16:57.256Z,13.3
2023-10-30T04:17:57.358Z,13.3
2023-10-30T04:18:57.304Z,13.3
2023-10-30T04:19:57.273Z,13.3
2023-10-30T04:20:57.300Z,13.3
2023-10-30T04:21:57.306Z,13.3
2023-10-30T04:22:57.257Z,13.3
2023-10-30T04:23:57.313Z,13.3
2023-10-30T04:24:57.267Z,13.3
2023-10-30T04:25:57.262Z,13.3
2023-10-30T04:26:57.277Z,13.3
2023-10-30T04:27:57.283Z,13.3
2023-10-30T04:28:57.306Z,13.3
2023-10-30T04:29:57.318Z,13.3
2023-10-30T04:30:57.314Z,13.3
2023-10-30T04:31:57.304Z,13.3
2023-10-30T04:32:57.286Z,13.3
2023-10-30T04:33:57.284Z,13.3
2023-10-30T04:34:57.299Z,13.3
2023-10-30T04:35:57.341Z,13.3
2023-10-30T04:36:57.288Z,13.3
2023-10-30T04:37:57.282Z,13.3
2023-10-30T04:38:57.298Z,13.3
2023-10-30T04:39:57.274Z,13.3
2023-10-30T04:40:57.294Z,13.3
2023-10-30T04:41:57.309Z,13.3
2023-10-30T04:42:57.295Z,13.3
2023-10-30T04:43:57.302Z,13
2023-10-30T04:44:57.308Z,13
2023-10-30T04:45:57.388Z,13
2023-10-30T04:46:57.309Z,13
2023-10-30T04:47:57.320Z,13
2023-10-30T04:48:57.295Z,13
2023-10-30T04:49:57.296Z,13
2023-10-30T04:50:57.320Z,13
2023-10-30T04:51:57.283Z,13
2023-10-30T04:52:57.294Z,13
2023-10-30T04:53:57.340Z,13
2023-10-30T04:54:57.294Z,13
2023-10-30T04:55:57.300Z,13
2023-10-30T04:56:57.296Z,13
2023-10-30T04:57:57.306Z,12.8
2023-10-30T04:58:57.292Z,12.8
2023-10-30T04:59:57.344Z,12.8
2023-10-30T05:00:57.291Z,12.8
2023-10-30T05:01:57.355Z,12.8
2023-10-30T05:02:57.354Z,12.8
2023-10-30T05:03:57.378Z,12.8
2023-10-30T05:04:57.312Z,12.8
2023-10-30T05:05:57.351Z,12.8
2023-10-30T05:06:57.303Z,12.8
2023-10-30T05:07:57.307Z,12.8
2023-10-30T05:08:57.298Z,12.8
2023-10-30T05:09:57.389Z,12.8
2023-10-30T05:10:57.352Z,12.8
2023-10-30T05:11:57.338Z,12.8
2023-10-30T05:12:57.314Z,12.8
2023-10-30T05:13:57.316Z,12.8
2023-10-30T05:14:57.316Z,12.8
2023-10-30T05:15:57.392Z,12.8
2023-10-30T05:16:57.320Z,12.8
2023-10-30T05:17:57.378Z,12.8
2023-10-30T05:18:57.299Z,12.8
2023-10-30T05:19:57.325Z,12.8
2023-10-30T05:20:57.315Z,12.8
2023-10-30T05:21:57.317Z,12.8
2023-10-30T05:22:57.319Z,12.8
2023-10-30T05:23:57.350Z,12.8
2023-10-30T05:24:57.320Z,12.8
2023-10-30T05:25:57.327Z,12.2
2023-10-30T05:26:57.351Z,12.2
2023-10-30T05:27:57.391Z,12.2
2023-10-30T05:28:57.323Z,12.2
2023-10-30T05:29:57.340Z,12.2
2023-10-30T05:30:57.476Z,12.2
2023-10-30T05:31:57.414Z,12.2
2023-10-30T05:32:57.445Z,12.2
2023-10-30T05:33:57.323Z,12.2
2023-10-30T05:34:57.321Z,12
2023-10-30T05:35:57.333Z,11.9
2023-10-30T05:36:57.317Z,11.9
2023-10-30T05:37:57.325Z,11.9
2023-10-30T05:38:57.357Z,11.9
2023-10-30T05:39:57.382Z,11.9
2023-10-30T05:40:57.408Z,11.9
2023-10-30T05:41:57.338Z,11.9
2023-10-30T05:42:57.326Z,11.9
2023-10-30T05:43:57.328Z,11.9
2023-10-30T05:44:57.323Z,11.9
2023-10-30T05:45:57.484Z,11.9
2023-10-30T05:46:57.332Z,11.9
2023-10-30T05:47:57.365Z,11.9
2023-10-30T05:48:57.334Z,11.9
2023-10-30T05:49:59.346Z,11.9
2023-10-30T05:50:57.372Z,11.9
2023-10-30T05:51:57.338Z,11.9
2023-10-30T05:52:57.334Z,11.9
2023-10-30T05:53:57.340Z,11.9
2023-10-30T05:54:57.337Z,11.9
2023-10-30T05:55:57.380Z,11.9
2023-10-30T05:56:57.340Z,11.9
2023-10-30T05:57:57.332Z,11.9
2023-10-30T05:58:57.344Z,11.9
2023-10-30T05:59:57.335Z,11.9
2023-10-30T06:00:57.369Z,11.9
2023-10-30T06:01:57.436Z,11.9
2023-10-30T06:02:57.388Z,11.9
2023-10-30T06:03:57.508Z,11.9
2023-10-30T06:04:57.352Z,11.9
2023-10-30T06:05:57.360Z,11.9
2023-10-30T06:06:57.372Z,11.9
2023-10-30T06:07:57.364Z,11.9
2023-10-30T06:08:57.356Z,11.9
2023-10-30T06:09:57.430Z,11.9
2023-10-30T06:10:57.359Z,11.9
2023-10-30T06:11:57.366Z,11.9
2023-10-30T06:12:57.365Z,11.9
2023-10-30T06:13:57.414Z,11.9
2023-10-30T06:14:57.370Z,11.9
2023-10-30T06:15:57.389Z,11.9
2023-10-30T06:16:57.386Z,11.9
2023-10-30T06:17:57.429Z,11.9
2023-10-30T06:18:57.381Z,11.9
2023-10-30T06:19:57.401Z,11.9
2023-10-30T06:20:57.374Z,11.9
2023-10-30T06:21:57.433Z,11.9
2023-10-30T06:22:57.369Z,11.9
2023-10-30T06:23:57.404Z,11.9
2023-10-30T06:24:57.419Z,11.9
2023-10-30T06:25:57.405Z,11.9
2023-10-30T06:26:57.412Z,12.5
2023-10-30T06:27:57.406Z,12.5
2023-10-30T06:28:57.401Z,12.5
2023-10-30T06:29:57.406Z,12.5
2023-10-30T06:30:57.440Z,12.5
2023-10-30T06:31:57.403Z,12.5
2023-10-30T06:32:57.518Z,12.5
2023-10-30T06:33:57.437Z,12.5
2023-10-30T06:34:57.397Z,12.5
2023-10-30T06:35:57.420Z,12.5
2023-10-30T06:36:57.507Z,12.5
2023-10-30T06:37:57.409Z,12.5
2023-10-30T06:38:57.414Z,13
2023-10-30T06:39:57.398Z,13
2023-10-30T06:40:57.404Z,13
2023-10-30T06:41:57.415Z,13
2023-10-30T06:42:57.456Z,13
2023-10-30T06:43:57.424Z,13
2023-10-30T06:44:57.412Z,13
2023-10-30T06:45:57.457Z,13
2023-10-30T06:46:58.417Z,13.6
2023-10-30T06:47:57.439Z,13.6
2023-10-30T06:48:57.461Z,13.6
2023-10-30T06:49:57.416Z,13.6
2023-10-30T06:50:57.418Z,13.6
2023-10-30T06:51:57.409Z,13.6
2023-10-30T06:52:57.423Z,13.6
2023-10-30T06:53:57.460Z,14.1
2023-10-30T06:54:57.468Z,14.1
2023-10-30T06:55:57.429Z,14.1
2023-10-30T06:56:57.431Z,14.1
2023-10-30T06:57:57.444Z,14.1
2023-10-30T06:58:57.431Z,14.1
2023-10-30T06:59:57.457Z,14.1
2023-10-30T07:00:57.518Z,14.1
2023-10-30T07:01:57.415Z,14.1
2023-10-30T07:02:57.519Z,14.1
2023-10-30T07:03:57.488Z,14.1
2023-10-30T07:04:57.472Z,14.1
2023-10-30T07:05:57.442Z,14.6
2023-10-30T07:06:57.463Z,14.6
2023-10-30T07:07:57.440Z,14.6
2023-10-30T07:08:57.959Z,14.6
2023-10-30T07:09:57.449Z,14.6
2023-10-30T07:10:57.434Z,14.6
2023-10-30T07:11:57.444Z,14.6
2023-10-30T07:12:57.443Z,14.6
2023-10-30T07:13:57.436Z,14.6
2023-10-30T07:14:57.448Z,14.6
2023-10-30T07:15:57.499Z,14.6
2023-10-30T07:17:04.195Z,14.6
2023-10-30T07:17:57.522Z,14.6
2023-10-30T07:18:57.445Z,15
2023-10-30T07:19:57.478Z,15
2023-10-30T07:20:57.497Z,15
2023-10-30T07:21:57.511Z,15
2023-10-30T07:22:57.507Z,15
2023-10-30T07:23:57.462Z,15
2023-10-30T07:24:57.514Z,15
2023-10-30T07:25:57.460Z,15
2023-10-30T07:26:57.457Z,15.2
2023-10-30T07:27:57.504Z,15.2
2023-10-30T07:28:57.469Z,15.2
2023-10-30T07:29:57.466Z,15.2
2023-10-30T07:30:57.618Z,15.2
2023-10-30T07:31:57.499Z,15.2
2023-10-30T07:32:57.486Z,15.2
2023-10-30T07:33:59.566Z,15.2
2023-10-30T07:34:57.488Z,15.2
2023-10-30T07:35:57.481Z,15.2
2023-10-30T07:36:57.582Z,15.2
2023-10-30T07:37:57.497Z,15.2
2023-10-30T07:38:57.497Z,15.2
2023-10-30T07:39:57.477Z,15.2
2023-10-30T07:40:57.493Z,15.2
2023-10-30T07:41:57.481Z,15.2
2023-10-30T07:42:57.538Z,15.2
2023-10-30T07:43:57.492Z,15.2
2023-10-30T07:44:57.538Z,15.2
2023-10-30T07:45:57.526Z,15.2
2023-10-30T07:46:57.535Z,15.2
2023-10-30T07:47:57.584Z,15.2
2023-10-30T07:48:57.546Z,15.7
2023-10-30T07:49:57.527Z,15.7
2023-10-30T07:50:57.493Z,15.7
2023-10-30T07:51:57.529Z,15.7
2023-10-30T07:52:57.792Z,15.7
2023-10-30T07:53:57.545Z,15.7
2023-10-30T07:54:57.536Z,15.7
2023-10-30T07:55:57.508Z,15.7
2023-10-30T07:56:57.507Z,15.7
2023-10-30T07:57:57.591Z,15.7
2023-10-30T07:58:57.503Z,15.7
2023-10-30T07:59:57.526Z,15.7
2023-10-30T08:00:58.993Z,15.7
2023-10-30T08:01:57.518Z,15.7
2023-10-30T08:02:57.631Z,15.7
2023-10-30T08:03:57.785Z,15.7
2023-10-30T08:04:57.532Z,15.7
2023-10-30T08:05:57.508Z,15.7
2023-10-30T08:06:57.572Z,16.2
2023-10-30T08:07:57.515Z,16.2
2023-10-30T08:08:57.508Z,16.2
2023-10-30T08:09:57.659Z,16.2
2023-10-30T08:10:57.592Z,16.2
2023-10-30T08:11:57.562Z,16.2
2023-10-30T08:12:57.569Z,16.4
2023-10-30T08:13:57.561Z,16.4
2023-10-30T08:14:57.540Z,16.4
2023-10-30T08:15:57.584Z,16.4
2023-10-30T08:16:57.572Z,16.4
2023-10-30T08:17:57.621Z,16.4
2023-10-30T08:18:57.574Z,16.4
2023-10-30T08:19:57.528Z,16.4
2023-10-30T08:21:07.063Z,16.4
2023-10-30T08:21:57.528Z,16.7
2023-10-30T08:22:57.533Z,16.7
2023-10-30T08:23:57.529Z,16.7
2023-10-30T08:24:57.594Z,16.7
2023-10-30T08:25:57.565Z,16.7
2023-10-30T08:26:57.532Z,16.7
2023-10-30T08:27:57.620Z,16.7
2023-10-30T08:28:57.528Z,16.7
2023-10-30T08:29:59.243Z,16.7
2023-10-30T08:30:57.662Z,16.7
2023-10-30T08:31:57.580Z,16.7
2023-10-30T08:32:57.565Z,16.7
2023-10-30T08:33:57.581Z,16.7
2023-10-30T08:34:57.537Z,16.7
2023-10-30T08:35:57.527Z,16.7
2023-10-30T08:36:57.683Z,16.7
2023-10-30T08:37:57.530Z,16.7
2023-10-30T08:38:57.562Z,16.7
2023-10-30T08:39:57.604Z,16.7
2023-10-30T08:40:57.602Z,17.2
2023-10-30T08:41:57.545Z,17.2
2023-10-30T08:42:57.637Z,17.2
2023-10-30T08:43:57.546Z,17.2
2023-10-30T08:44:57.531Z,17.2
2023-10-30T08:45:57.603Z,17.2
2023-10-30T08:46:57.564Z,17.2
2023-10-30T08:48:12.142Z,17.2
2023-10-30T08:48:57.613Z,17.2
2023-10-30T08:49:57.555Z,17.2
2023-10-30T08:50:57.540Z,17.2
2023-10-30T08:52:04.474Z,17.2
2023-10-30T08:52:57.551Z,17.2
2023-10-30T08:53:57.587Z,17.2
2023-10-30T08:54:57.673Z,17.2
2023-10-30T08:55:59.147Z,17.2
2023-10-30T08:57:03.932Z,17.2
2023-10-30T08:57:57.552Z,17.2
2023-10-30T08:58:57.544Z,17.2
2023-10-30T08:59:57.579Z,17.7
2023-10-30T09:00:57.578Z,17.7
2023-10-30T09:01:57.562Z,17.7
2023-10-30T09:02:57.637Z,17.7
2023-10-30T09:03:57.815Z,17.7
2023-10-30T09:04:57.789Z,17.7
2023-10-30T09:05:57.680Z,17.7
2023-10-30T09:06:57.586Z,18
2023-10-30T09:07:57.570Z,18
2023-10-30T09:08:57.582Z,18
2023-10-30T09:09:57.614Z,18
2023-10-30T09:10:57.561Z,18
2023-10-30T09:11:57.607Z,18
2023-10-30T09:12:57.638Z,18
2023-10-30T09:13:57.603Z,18
2023-10-30T09:14:57.572Z,18.2
2023-10-30T09:15:57.638Z,18.2
2023-10-30T09:16:57.572Z,18.2
2023-10-30T09:17:57.661Z,18.2
2023-10-30T09:18:57.579Z,18.2
2023-10-30T09:19:57.591Z,18.2
2023-10-30T09:20:57.569Z,18.2
2023-10-30T09:21:57.677Z,18.2
2023-10-30T09:22:57.566Z,18.2
2023-10-30T09:23:57.565Z,18.2
2023-10-30T09:24:57.617Z,18.2
2023-10-30T09:25:57.558Z,18.2
2023-10-30T09:26:57.635Z,18.2
2023-10-30T09:27:57.636Z,18.7
2023-10-30T09:28:57.566Z,18.7
2023-10-30T09:29:57.584Z,18.7
2023-10-30T09:30:57.614Z,18.7
2023-10-30T09:31:57.574Z,18.7
2023-10-30T09:32:57.651Z,18.7
2023-10-30T09:33:57.633Z,18.7
2023-10-30T09:34:57.576Z,18.7
2023-10-30T09:35:57.572Z,18.7
2023-10-30T09:36:57.652Z,18.7
2023-10-30T09:37:57.592Z,19.3
2023-10-30T09:38:57.614Z,19.3
2023-10-30T09:39:57.627Z,19.3
2023-10-30T09:40:57.596Z,19.3
2023-10-30T09:41:57.577Z,19.3
2023-10-30T09:42:57.724Z,19.3
2023-10-30T09:43:57.602Z,19.3
2023-10-30T09:44:57.595Z,19.3
2023-10-30T09:45:57.733Z,19.3
2023-10-30T09:46:57.594Z,19.3
2023-10-30T09:47:57.635Z,19.3
2023-10-30T09:48:57.708Z,19.8
2023-10-30T09:49:57.620Z,19.8
2023-10-30T09:50:57.587Z,19.8
2023-10-30T09:51:57.633Z,19.8
2023-10-30T09:52:57.596Z,19.8
2023-10-30T09:53:57.655Z,19.8
2023-10-30T09:54:59.192Z,19.8
2023-10-30T09:55:57.602Z,19.8
2023-10-30T09:56:57.609Z,19.8
2023-10-30T09:57:57.973Z,20
2023-10-30T09:58:57.588Z,20
2023-10-30T09:59:57.661Z,20
2023-10-30T10:00:57.680Z,20
2023-10-30T10:01:57.714Z,20
2023-10-30T10:02:57.816Z,20
2023-10-30T10:03:57.782Z,20
2023-10-30T10:04:57.591Z,20
2023-10-30T10:05:57.651Z,20
2023-10-30T10:06:57.628Z,20
2023-10-30T10:07:57.643Z,20
2023-10-30T10:08:57.609Z,20
2023-10-30T10:09:57.640Z,20
2023-10-30T10:10:57.645Z,20
2023-10-30T10:11:57.615Z,20
2023-10-30T10:12:57.715Z,20
2023-10-30T10:14:05.509Z,20
2023-10-30T10:14:57.651Z,20
2023-10-30T10:15:57.714Z,20
2023-10-30T10:16:59.828Z,20
2023-10-30T10:17:57.695Z,20
2023-10-30T10:18:57.679Z,20
2023-10-30T10:19:57.625Z,20
2023-10-30T10:20:57.620Z,20
2023-10-30T10:21:57.680Z,20
2023-10-30T10:22:57.625Z,20
2023-10-30T10:23:57.653Z,20.2
2023-10-30T10:24:57.656Z,20.2
2023-10-30T10:25:57.685Z,20.2
2023-10-30T10:26:57.677Z,20.2
2023-10-30T10:27:57.665Z,20.2
2023-10-30T10:28:58.635Z,20.2
2023-10-30T10:29:57.689Z,20.2
2023-10-30T10:30:57.702Z,20.2
2023-10-30T10:31:57.650Z,20.2
2023-10-30T10:32:57.706Z,20.2
2023-10-30T10:33:57.767Z,20.2
2023-10-30T10:34:57.735Z,20.2
2023-10-30T10:35:57.682Z,20.2
2023-10-30T10:36:57.698Z,20.2
2023-10-30T10:37:57.648Z,20.2
2023-10-30T10:38:57.683Z,20.2
2023-10-30T10:39:57.715Z,20.2
2023-10-30T10:40:57.709Z,20.2
2023-10-30T10:41:57.686Z,20.2
2023-10-30T10:42:57.727Z,20.2
2023-10-30T10:43:57.700Z,20.2
2023-10-30T10:44:57.684Z,20.2
2023-10-30T10:45:57.819Z,20.2
2023-10-30T10:46:57.705Z,20.2
2023-10-30T10:47:57.711Z,20.2
2023-10-30T10:48:57.713Z,20.2
2023-10-30T10:49:57.673Z,20.8
2023-10-30T10:50:57.719Z,20.8
2023-10-30T10:51:57.743Z,20.8
2023-10-30T10:52:57.687Z,20.8
2023-10-30T10:53:57.704Z,20.8
2023-10-30T10:54:57.725Z,20.8
2023-10-30T10:55:57.712Z,20.8
2023-10-30T10:56:57.702Z,20.8
2023-10-30T10:57:57.726Z,20.9
2023-10-30T10:58:57.717Z,20.9
2023-10-30T10:59:57.703Z,20.9
2023-10-30T11:00:57.797Z,20.9
2023-10-30T11:01:57.693Z,20.9
2023-10-30T11:02:57.774Z,20.9
2023-10-30T11:03:57.807Z,20.9
2023-10-30T11:04:57.705Z,20.9
2023-10-30T11:05:57.699Z,20.9
2023-10-30T11:06:57.738Z,20.9
2023-10-30T11:07:57.717Z,20.9
2023-10-30T11:08:57.752Z,20.9
2023-10-30T11:09:57.812Z,20.9
2023-10-30T11:10:57.747Z,20.9
2023-10-30T11:11:57.723Z,20.9
2023-10-30T11:12:57.776Z,20.9
2023-10-30T11:13:57.749Z,20.9
2023-10-30T11:14:57.735Z,20.9
2023-10-30T11:15:57.783Z,20.9
2023-10-30T11:16:57.808Z,20.9
2023-10-30T11:17:58.785Z,20.9
2023-10-30T11:18:57.757Z,20.9
2023-10-30T11:19:57.732Z,20.9
2023-10-30T11:20:57.771Z,20.9
2023-10-30T11:21:57.774Z,20.9
2023-10-30T11:22:57.737Z,20.9
2023-10-30T11:23:59.849Z,20.9
2023-10-30T11:24:57.808Z,20.9
2023-10-30T11:25:57.726Z,20.9
2023-10-30T11:26:57.744Z,20.9
2023-10-30T11:27:57.795Z,20.9
2023-10-30T11:28:57.776Z,20.9
2023-10-30T11:29:57.743Z,20.9
2023-10-30T11:30:57.738Z,20.9
2023-10-30T11:31:57.815Z,20.9
2023-10-30T11:32:57.767Z,20.9
2023-10-30T11:33:57.756Z,20.9
2023-10-30T11:34:57.761Z,20.9
2023-10-30T11:35:57.787Z,20.9
2023-10-30T11:36:57.746Z,20.9
2023-10-30T11:37:57.744Z,20.9
2023-10-30T11:38:57.899Z,20.9
2023-10-30T11:39:57.802Z,20.9
2023-10-30T11:40:57.799Z,20.9
2023-10-30T11:41:57.759Z,20.9
2023-10-30T11:42:57.932Z,21.4
2023-10-30T11:43:57.743Z,21.4
2023-10-30T11:44:57.755Z,21.4
2023-10-30T11:45:57.893Z,21.4
2023-10-30T11:46:57.807Z,21.4
2023-10-30T11:47:57.781Z,21.4
2023-10-30T11:48:57.777Z,21.4
2023-10-30T11:49:57.757Z,21.4
2023-10-30T11:50:57.793Z,21.4
2023-10-30T11:51:57.794Z,21.4
2023-10-30T11:52:57.753Z,21.4
2023-10-30T11:53:57.765Z,21.4
2023-10-30T11:54:57.799Z,21.6
2023-10-30T11:55:57.778Z,21.6
2023-10-30T11:56:57.764Z,21.6
2023-10-30T11:57:57.823Z,21.6
2023-10-30T11:58:57.773Z,21.6
2023-10-30T11:59:57.776Z,21.6
2023-10-30T12:00:57.873Z,21.6
2023-10-30T12:01:57.835Z,21.6
2023-10-30T12:02:57.838Z,21.6
2023-10-30T12:03:57.857Z,21.6
2023-10-30T12:04:57.783Z,21.6
2023-10-30T12:05:57.769Z,21.6
2023-10-30T12:06:57.829Z,21.6
2023-10-30T12:07:57.782Z,21.6
2023-10-30T12:08:57.781Z,21.6
2023-10-30T12:09:57.797Z,21.6
2023-10-30T12:10:57.792Z,21.6
2023-10-30T12:11:57.836Z,21.6
2023-10-30T12:13:00.249Z,21.6
2023-10-30T12:13:57.799Z,21.6
2023-10-30T12:14:57.771Z,21.6
2023-10-30T12:15:57.823Z,21.6
2023-10-30T12:16:57.930Z,21.6
2023-10-30T12:17:57.814Z,21.6
2023-10-30T12:18:57.841Z,21.7
2023-10-30T12:19:57.798Z,21.7
2023-10-30T12:20:57.776Z,21.7
2023-10-30T12:21:57.847Z,21.7
2023-10-30T12:22:57.787Z,21.7
2023-10-30T12:23:57.844Z,21.7
2023-10-30T12:24:57.846Z,21.7
2023-10-30T12:25:57.809Z,21.7
2023-10-30T12:26:57.793Z,21.7
2023-10-30T12:27:57.870Z,21.7
2023-10-30T12:28:57.818Z,21.7
2023-10-30T12:29:57.841Z,21.7
2023-10-30T12:30:57.888Z,21.7
2023-10-30T12:31:57.814Z,21.7
2023-10-30T12:32:57.864Z,21.7
2023-10-30T12:33:57.908Z,21.7
2023-10-30T12:34:57.812Z,21.7
2023-10-30T12:35:57.806Z,21.7
2023-10-30T12:36:57.820Z,21.7
2023-10-30T12:37:57.814Z,21.7
2023-10-30T12:38:57.816Z,21.2
2023-10-30T12:39:57.917Z,21.2
2023-10-30T12:40:57.828Z,21.2
2023-10-30T12:41:57.859Z,21.2
2023-10-30T12:42:57.845Z,21.2
2023-10-30T12:43:57.815Z,21.2
2023-10-30T12:44:57.819Z,21.2
2023-10-30T12:45:57.858Z,21.2
2023-10-30T12:46:57.830Z,21.2
2023-10-30T12:47:57.879Z,21.2
2023-10-30T12:48:57.827Z,21.2
2023-10-30T12:49:57.817Z,21.2
2023-10-30T12:50:57.888Z,21.2
2023-10-30T12:51:57.854Z,21.2
2023-10-30T12:52:57.828Z,21.2
2023-10-30T12:53:57.874Z,21.1
2023-10-30T12:54:57.911Z,21.1
2023-10-30T12:55:57.834Z,21.1
2023-10-30T12:56:57.824Z,21.1
2023-10-30T12:57:57.876Z,21.1
2023-10-30T12:58:57.831Z,21.1
2023-10-30T12:59:57.828Z,21.1
2023-10-30T13:01:58.981Z,21.1
2023-10-30T13:02:57.971Z,21.1
2023-10-30T13:03:58.064Z,21.1
2023-10-30T13:04:57.928Z,21.1
2023-10-30T13:05:57.832Z,21.1
2023-10-30T13:06:57.891Z,21.1
2023-10-30T13:07:57.872Z,21.1
2023-10-30T13:08:57.856Z,21.1
2023-10-30T13:09:57.907Z,21.1
2023-10-30T13:10:57.955Z,21.1
2023-10-30T13:11:57.826Z,21.1
2023-10-30T13:12:57.924Z,21.1
2023-10-30T13:13:57.859Z,21.1
2023-10-30T13:14:57.844Z,21.1
2023-10-30T13:15:57.990Z,21.1
2023-10-30T13:16:57.848Z,21.1
2023-10-30T13:17:57.918Z,21.1
2023-10-30T13:18:57.917Z,21.1
2023-10-30T13:19:57.867Z,21.1
2023-10-30T13:20:57.932Z,21.1
2023-10-30T13:21:57.900Z,21.1
2023-10-30T13:22:57.865Z,21.1
2023-10-30T13:23:58.979Z,21.1
2023-10-30T13:24:57.881Z,21.1
2023-10-30T13:25:57.994Z,21.1
2023-10-30T13:26:57.848Z,21.1
2023-10-30T13:27:57.932Z,21.1